createdAt,value
2023-03-24T00:01:07.479Z,2.70
2023-03-24T00:03:34.041Z,2.40
2023-03-24T00:06:03.414Z,2.37
2023-03-24T00:08:31.146Z,2.80
2023-03-24T00:11:07.393Z,2.80
2023-03-24T00:13:38.178Z,2.67
2023-03-24T00:16:10.610Z,2.30
2023-03-24T00:18:39.288Z,2.43
2023-03-24T00:21:07.729Z,2.33
2023-03-24T00:23:34.785Z,2.07
2023-03-24T00:26:02.663Z,2.13
2023-03-24T00:28:33.173Z,2.40
2023-03-24T00:31:02.103Z,1.97
2023-03-24T00:33:32.947Z,1.70
2023-03-24T00:36:00.978Z,1.60
2023-03-24T00:38:28.010Z,1.70
2023-03-24T00:40:54.926Z,1.87
2023-03-24T00:43:21.909Z,1.80
2023-03-24T00:45:48.361Z,1.70
2023-03-24T00:48:20.256Z,1.40
2023-03-24T00:50:49.257Z,1.70
2023-03-24T00:53:16.425Z,1.70
2023-03-24T00:55:48.021Z,1.50
2023-03-24T00:58:17.974Z,1.80
2023-03-24T01:00:46.304Z,1.73
2023-03-24T01:03:13.691Z,1.33
2023-03-24T01:05:42.288Z,1.53
2023-03-24T01:08:10.155Z,1.70
2023-03-24T01:10:52.964Z,1.90
2023-03-24T01:13:25.518Z,2.07
2023-03-24T01:15:52.920Z,1.60
2023-03-24T01:18:19.971Z,1.40
2023-03-24T01:20:49.117Z,1.60
2023-03-24T01:23:22.838Z,1.57
2023-03-24T01:25:51.074Z,1.60
2023-03-24T01:28:23.332Z,1.70
2023-03-24T01:30:49.878Z,1.40
2023-03-24T01:33:16.526Z,1.50
2023-03-24T01:35:43.095Z,1.80
2023-03-24T01:38:11.580Z,1.47
2023-03-24T01:40:41.101Z,1.43
2023-03-24T01:43:18.124Z,1.30
2023-03-24T01:45:51.018Z,1.57
2023-03-24T01:48:28.669Z,1.93
2023-03-24T01:51:03.096Z,1.57
2023-03-24T01:53:31.892Z,2.00
2023-03-24T01:55:59.969Z,1.93
2023-03-24T01:58:30.780Z,2.30
2023-03-24T02:00:58.058Z,2.10
2023-03-24T02:03:26.628Z,2.10
2023-03-24T02:05:54.957Z,1.90
2023-03-24T02:08:42.373Z,2.10
2023-03-24T02:11:09.605Z,2.33
2023-03-24T02:13:36.493Z,2.20
2023-03-24T02:16:02.995Z,2.33
2023-03-24T02:18:44.708Z,2.17
2023-03-24T02:21:45.552Z,2.40
2023-03-24T02:24:40.003Z,2.27
2023-03-24T02:27:29.935Z,2.30
2023-03-24T02:29:56.356Z,2.17
2023-03-24T02:33:05.438Z,2.00
2023-03-24T02:36:09.556Z,2.40
2023-03-24T02:38:45.606Z,2.10
2023-03-24T02:41:31.234Z,1.80
2023-03-24T02:44:12.837Z,1.90
2023-03-24T02:46:46.950Z,2.20
2023-03-24T02:49:34.877Z,2.10
2023-03-24T02:52:06.642Z,2.43
2023-03-24T02:55:05.346Z,2.27
2023-03-24T02:57:52.890Z,1.93
2023-03-24T03:00:23.233Z,1.47
2023-03-24T03:02:59.158Z,2.00
2023-03-24T03:05:39.375Z,1.50
2023-03-24T03:08:10.873Z,1.50
2023-03-24T03:10:41.149Z,1.30
2023-03-24T03:13:20.434Z,1.40
2023-03-24T03:15:52.057Z,1.57
2023-03-24T03:18:39.795Z,1.33
2023-03-24T03:21:10.256Z,1.70
2023-03-24T03:23:46.636Z,1.80
2023-03-24T03:26:17.327Z,1.50
2023-03-24T03:28:49.765Z,1.63
2023-03-24T03:31:24.093Z,1.70
2023-03-24T03:34:00.373Z,1.27
2023-03-24T03:36:35.509Z,1.40
2023-03-24T03:39:01.974Z,1.27
2023-03-24T03:41:28.451Z,1.60
2023-03-24T03:43:55.235Z,1.27
2023-03-24T03:46:22.052Z,1.83
2023-03-24T03:48:48.620Z,1.57
2023-03-24T03:51:16.184Z,1.53
2023-03-24T03:53:56.405Z,1.40
2023-03-24T03:56:28.358Z,1.50
2023-03-24T03:58:54.883Z,1.40
2023-03-24T04:01:25.538Z,1.30
2023-03-24T04:04:06.886Z,1.60
2023-03-24T04:06:50.381Z,1.60
2023-03-24T04:09:25.808Z,1.80
2023-03-24T04:12:24.818Z,1.60
2023-03-24T04:15:10.090Z,1.77
2023-03-24T04:18:17.507Z,1.40
2023-03-24T04:20:52.009Z,1.30
2023-03-24T04:23:26.346Z,1.50
2023-03-24T04:26:01.959Z,1.30
2023-03-24T04:28:48.564Z,0.87
2023-03-24T04:31:34.561Z,1.30
2023-03-24T04:34:21.750Z,1.30
2023-03-24T04:37:02.725Z,1.60
2023-03-24T04:39:32.687Z,1.50
2023-03-24T04:42:04.082Z,1.13
2023-03-24T04:44:33.061Z,1.50
2023-03-24T04:47:02.533Z,1.53
2023-03-24T04:49:29.365Z,1.23
2023-03-24T04:51:55.776Z,1.00
2023-03-24T04:54:23.191Z,1.50
2023-03-24T04:56:52.714Z,1.20
2023-03-24T04:59:19.601Z,1.13
2023-03-24T05:01:49.652Z,1.50
2023-03-24T05:04:24.644Z,1.30
2023-03-24T05:06:51.194Z,1.57
2023-03-24T05:09:22.076Z,1.77
2023-03-24T05:11:49.532Z,1.67
2023-03-24T05:14:16.533Z,1.50
2023-03-24T05:16:43.075Z,1.50
2023-03-24T05:19:09.930Z,1.57
2023-03-24T05:21:37.352Z,1.43
2023-03-24T05:24:04.117Z,1.27
2023-03-24T05:26:33.170Z,1.50
2023-03-24T05:29:00.306Z,1.30
2023-03-24T05:31:26.845Z,1.30
2023-03-24T05:33:53.277Z,1.10
2023-03-24T05:36:19.761Z,1.30
2023-03-24T05:38:46.198Z,1.50
2023-03-24T05:41:12.679Z,1.27
2023-03-24T05:43:39.126Z,1.17
2023-03-24T05:46:05.750Z,1.30
2023-03-24T05:48:32.155Z,1.20
2023-03-24T05:50:58.617Z,1.30
2023-03-24T05:53:25.342Z,1.67
2023-03-24T05:55:53.596Z,1.37
2023-03-24T05:58:21.247Z,1.63
2023-03-24T06:00:47.724Z,1.50
2023-03-24T06:03:14.321Z,1.33
2023-03-24T06:05:40.920Z,1.43
2023-03-24T06:08:09.946Z,1.70
2023-03-24T06:10:36.887Z,1.40
2023-03-24T06:13:03.590Z,1.60
2023-03-24T06:15:30.822Z,1.77
2023-03-24T06:17:57.316Z,1.67
2023-03-24T06:20:23.877Z,1.20
2023-03-24T06:22:50.338Z,1.90
2023-03-24T06:25:20.196Z,1.60
2023-03-24T06:27:46.774Z,1.60
2023-03-24T06:30:17.749Z,1.50
2023-03-24T06:32:47.871Z,1.83
2023-03-24T06:35:15.839Z,1.80
2023-03-24T06:37:42.884Z,2.03
2023-03-24T06:40:15.247Z,1.73
2023-03-24T06:42:43.104Z,2.20
2023-03-24T06:45:10.294Z,2.00
2023-03-24T06:47:37.587Z,1.70
2023-03-24T06:50:05.405Z,1.87
2023-03-24T06:52:31.911Z,1.80
2023-03-24T06:54:58.442Z,2.03
2023-03-24T06:57:24.922Z,1.70
2023-03-24T06:59:51.370Z,1.53
2023-03-24T07:02:17.732Z,1.83
2023-03-24T07:04:45.785Z,1.90
2023-03-24T07:07:50.019Z,1.70
2023-03-24T07:09:58.818Z,1.70
2023-03-24T07:12:25.736Z,1.87
2023-03-24T07:14:52.236Z,1.83
2023-03-24T07:17:18.673Z,1.80
2023-03-24T07:19:45.833Z,1.97
2023-03-24T07:22:12.444Z,1.70
2023-03-24T07:24:39.087Z,2.03
2023-03-24T07:27:06.739Z,2.03
2023-03-24T07:29:33.168Z,1.90
2023-03-24T07:32:00.927Z,1.87
2023-03-24T07:34:28.572Z,1.63
2023-03-24T07:36:55.595Z,1.50
2023-03-24T07:39:22.323Z,1.60
2023-03-24T07:41:48.715Z,1.90
2023-03-24T07:44:15.824Z,1.57
2023-03-24T07:46:42.294Z,1.67
2023-03-24T07:49:18.655Z,1.90
2023-03-24T07:51:45.652Z,1.90
2023-03-24T07:54:12.131Z,1.93
2023-03-24T07:56:38.667Z,1.97
2023-03-24T07:59:05.206Z,1.73
2023-03-24T08:01:32.150Z,1.77
2023-03-24T08:03:58.661Z,1.70
2023-03-24T08:06:25.303Z,1.80
2023-03-24T08:08:51.708Z,1.73
2023-03-24T08:11:18.126Z,1.73
2023-03-24T08:13:44.496Z,1.80
2023-03-24T08:16:11.129Z,1.73
2023-03-24T08:18:38.782Z,2.00
2023-03-24T08:21:05.909Z,1.80
2023-03-24T08:23:32.750Z,2.07
2023-03-24T08:25:59.316Z,2.03
2023-03-24T08:28:25.749Z,1.80
2023-03-24T08:30:52.266Z,1.63
2023-03-24T08:33:18.813Z,1.97
2023-03-24T08:35:46.859Z,2.13
2023-03-24T08:38:16.318Z,1.70
2023-03-24T08:40:44.754Z,2.33
2023-03-24T08:43:14.775Z,2.20
2023-03-24T08:45:41.676Z,2.10
2023-03-24T08:48:09.609Z,2.20
2023-03-24T08:50:39.819Z,2.10
2023-03-24T08:53:06.954Z,2.10
2023-03-24T08:55:34.125Z,2.10
2023-03-24T08:58:01.447Z,2.50
2023-03-24T09:00:29.064Z,1.83
2023-03-24T09:02:56.959Z,1.80
2023-03-24T09:05:36.581Z,1.60
2023-03-24T09:08:08.174Z,1.97
2023-03-24T09:10:35.161Z,1.90
2023-03-24T09:13:01.981Z,1.43
2023-03-24T09:15:28.456Z,1.80
2023-03-24T09:17:56.200Z,1.73
2023-03-24T09:20:22.797Z,1.33
2023-03-24T09:22:49.277Z,1.70
2023-03-24T09:25:18.473Z,1.30
2023-03-24T09:27:46.162Z,1.53
2023-03-24T09:30:17.988Z,1.50
2023-03-24T09:32:47.360Z,1.63
2023-03-24T09:35:15.395Z,1.33
2023-03-24T09:37:43.659Z,1.43
2023-03-24T09:40:21.403Z,1.60
2023-03-24T09:42:56.446Z,1.43
2023-03-24T09:45:26.672Z,1.60
2023-03-24T09:47:57.994Z,1.30
2023-03-24T09:50:28.998Z,1.50
2023-03-24T09:53:04.220Z,1.63
2023-03-24T09:55:30.815Z,1.70
2023-03-24T09:58:06.136Z,1.37
2023-03-24T10:00:34.544Z,1.50
2023-03-24T10:03:13.200Z,1.50
2023-03-24T10:05:55.241Z,1.67
2023-03-24T10:08:43.099Z,1.50
2023-03-24T10:11:37.229Z,1.70
2023-03-24T10:14:12.487Z,1.73
2023-03-24T10:16:59.178Z,1.30
2023-03-24T10:19:48.525Z,1.30
2023-03-24T10:22:47.888Z,1.23
2023-03-24T10:25:48.619Z,1.63
2023-03-24T10:28:30.886Z,1.50
2023-03-24T10:31:02.793Z,1.40
2023-03-24T10:33:30.521Z,1.47
2023-03-24T10:36:02.123Z,1.20
2023-03-24T10:38:28.637Z,1.37
2023-03-24T10:40:55.944Z,1.00
2023-03-24T10:43:24.355Z,1.00
2023-03-24T10:45:54.945Z,0.90
2023-03-24T10:48:39.805Z,1.10
2023-03-24T10:51:07.229Z,0.93
2023-03-24T10:53:34.256Z,1.00
2023-03-24T10:56:00.693Z,0.90
2023-03-24T10:58:39.879Z,0.77
2023-03-24T11:01:30.665Z,0.80
2023-03-24T11:04:03.559Z,0.97
2023-03-24T11:06:30.712Z,0.70
2023-03-24T11:09:18.270Z,0.70
2023-03-24T11:11:44.816Z,0.87
2023-03-24T11:14:26.976Z,0.87
2023-03-24T11:17:09.754Z,0.80
2023-03-24T11:19:36.908Z,0.67
2023-03-24T11:22:06.895Z,0.80
2023-03-24T11:24:38.280Z,0.87
2023-03-24T11:27:05.044Z,0.83
2023-03-24T11:29:34.188Z,0.70
2023-03-24T11:32:03.665Z,0.77
2023-03-24T11:34:41.973Z,0.87
2023-03-24T11:37:13.646Z,0.90
2023-03-24T11:39:40.560Z,0.67
2023-03-24T11:42:18.425Z,0.60
2023-03-24T11:44:52.526Z,0.80
2023-03-24T11:47:24.499Z,0.80
2023-03-24T11:50:11.429Z,0.80
2023-03-24T11:52:45.405Z,0.73
2023-03-24T11:55:17.565Z,1.00
2023-03-24T11:58:01.864Z,0.83
2023-03-24T12:00:48.488Z,0.87
2023-03-24T12:03:42.247Z,0.57
2023-03-24T12:06:44.605Z,0.70
2023-03-24T12:09:40.214Z,0.63
2023-03-24T12:12:51.716Z,0.53
2023-03-24T12:15:52.373Z,0.60
2023-03-24T12:18:51.684Z,0.60
2023-03-24T12:21:24.967Z,0.50
2023-03-24T12:23:58.857Z,0.60
2023-03-24T12:26:27.473Z,0.60
2023-03-24T12:29:27.665Z,0.67
2023-03-24T12:32:03.467Z,0.70
2023-03-24T12:35:00.097Z,0.50
2023-03-24T12:38:03.963Z,0.47
2023-03-24T12:40:51.149Z,0.63
2023-03-24T12:43:47.452Z,0.60
2023-03-24T12:46:46.517Z,0.60
2023-03-24T12:49:23.068Z,0.50
2023-03-24T12:52:05.238Z,0.50
2023-03-24T12:54:47.837Z,0.57
2023-03-24T12:57:17.924Z,0.40
2023-03-24T12:59:51.632Z,0.40
2023-03-24T13:02:35.938Z,0.60
2023-03-24T13:05:08.421Z,0.53
2023-03-24T13:07:39.230Z,0.50
2023-03-24T13:10:14.110Z,0.57
2023-03-24T13:12:52.226Z,0.30
2023-03-24T13:15:25.024Z,0.60
2023-03-24T13:18:11.805Z,0.50
2023-03-24T13:21:00.032Z,0.50
2023-03-24T13:23:42.039Z,0.60
2023-03-24T13:26:41.041Z,0.60
2023-03-24T13:29:48.458Z,0.47
2023-03-24T13:32:25.509Z,0.77
2023-03-24T13:35:03.836Z,0.50
2023-03-24T13:37:37.808Z,0.30
2023-03-24T13:40:18.314Z,1.03
2023-03-24T13:42:54.028Z,0.60
2023-03-24T13:45:23.666Z,0.40
2023-03-24T13:48:04.571Z,0.50
2023-03-24T13:50:33.696Z,0.60
2023-03-24T13:53:07.548Z,0.80
2023-03-24T13:55:38.115Z,0.90
2023-03-24T13:58:11.137Z,0.80
2023-03-24T14:01:05.340Z,0.50
2023-03-24T14:03:34.838Z,0.40
2023-03-24T14:06:05.123Z,0.80
2023-03-24T14:08:42.719Z,0.80
2023-03-24T14:11:34.525Z,0.80
2023-03-24T14:14:16.762Z,0.87
2023-03-24T14:16:50.357Z,0.60
2023-03-24T14:19:17.689Z,0.67
2023-03-24T14:21:45.285Z,0.50
2023-03-24T14:24:25.502Z,1.03
2023-03-24T14:26:52.577Z,0.60
2023-03-24T14:29:39.123Z,0.40
2023-03-24T14:32:19.173Z,0.50
2023-03-24T14:34:52.347Z,0.60
2023-03-24T14:37:18.883Z,0.60
2023-03-24T14:39:49.499Z,0.50
2023-03-24T14:42:48.043Z,0.53
2023-03-24T14:45:43.663Z,0.70
2023-03-24T14:48:42.403Z,0.40
2023-03-24T14:51:27.013Z,0.60
2023-03-24T14:53:58.164Z,1.33
2023-03-24T14:56:30.983Z,0.50
2023-03-24T14:59:11.441Z,0.60
2023-03-24T15:01:38.667Z,0.43
2023-03-24T15:04:09.287Z,0.60
2023-03-24T15:06:46.842Z,0.63
2023-03-24T15:09:16.132Z,0.47
2023-03-24T15:11:44.330Z,0.57
2023-03-24T15:14:26.442Z,0.50
2023-03-24T15:16:56.872Z,0.50
2023-03-24T15:19:29.584Z,0.67
2023-03-24T15:22:14.758Z,0.60
2023-03-24T15:24:42.529Z,0.87
2023-03-24T15:27:29.117Z,0.40
2023-03-24T15:29:59.142Z,0.77
2023-03-24T15:32:31.335Z,0.67
2023-03-24T15:35:05.421Z,0.60
2023-03-24T15:37:41.683Z,0.50
2023-03-24T15:40:30.659Z,0.53
2023-03-24T15:43:03.163Z,0.60
2023-03-24T15:45:32.107Z,0.50
2023-03-24T15:48:05.316Z,0.77
2023-03-24T15:50:37.662Z,0.60
2023-03-24T15:53:06.381Z,0.73
2023-03-24T15:55:37.201Z,0.50
2023-03-24T15:58:23.292Z,0.40
2023-03-24T16:00:54.676Z,0.70
2023-03-24T16:03:26.410Z,0.60
2023-03-24T16:05:55.161Z,0.70
2023-03-24T16:08:36.231Z,0.63
2023-03-24T16:11:07.720Z,0.87
2023-03-24T16:13:34.739Z,0.60
2023-03-24T16:16:10.170Z,0.60
2023-03-24T16:18:39.122Z,0.70
2023-03-24T16:21:19.366Z,0.60
2023-03-24T16:23:46.997Z,0.80
2023-03-24T16:26:31.185Z,0.70
2023-03-24T16:29:17.244Z,0.50
2023-03-24T16:31:50.633Z,0.77
2023-03-24T16:34:20.410Z,0.60
2023-03-24T16:36:51.450Z,0.60
2023-03-24T16:39:20.815Z,0.80
2023-03-24T16:41:47.427Z,0.60
2023-03-24T16:44:14.301Z,0.87
2023-03-24T16:46:41.666Z,0.70
2023-03-24T16:49:12.883Z,0.80
2023-03-24T16:51:40.379Z,0.63
2023-03-24T16:54:07.910Z,0.60
2023-03-24T16:56:35.695Z,0.90
2023-03-24T16:59:02.878Z,0.60
2023-03-24T17:01:38.893Z,0.83
2023-03-24T17:04:09.588Z,0.80
2023-03-24T17:06:40.282Z,0.63
2023-03-24T17:09:08.410Z,0.80
2023-03-24T17:11:37.852Z,0.50
2023-03-24T17:14:08.320Z,0.60
2023-03-24T17:16:37.368Z,0.50
2023-03-24T17:19:06.136Z,0.50
2023-03-24T17:21:35.042Z,0.77
2023-03-24T17:24:02.845Z,0.70
2023-03-24T17:26:30.955Z,0.70
2023-03-24T17:28:58.500Z,0.70
2023-03-24T17:31:25.009Z,0.93
2023-03-24T17:33:51.461Z,0.93
2023-03-24T17:36:17.872Z,0.90
2023-03-24T17:38:47.282Z,0.70
2023-03-24T17:41:14.611Z,0.80
2023-03-24T17:43:41.153Z,0.90
2023-03-24T17:46:07.860Z,1.00
2023-03-24T17:48:34.764Z,1.20
2023-03-24T17:51:01.249Z,1.00
2023-03-24T17:53:27.825Z,0.90
2023-03-24T17:55:58.182Z,0.80
2023-03-24T17:58:26.962Z,0.93
2023-03-24T18:00:54.170Z,0.87
2023-03-24T18:03:21.752Z,0.87
2023-03-24T18:05:48.547Z,0.83
2023-03-24T18:08:15.030Z,0.80
2023-03-24T18:10:41.570Z,0.83
2023-03-24T18:13:08.125Z,1.03
2023-03-24T18:15:34.900Z,1.00
2023-03-24T18:18:01.847Z,1.20
2023-03-24T18:20:28.723Z,1.27
2023-03-24T18:22:55.422Z,1.07
2023-03-24T18:25:21.948Z,0.90
2023-03-24T18:27:48.459Z,1.07
2023-03-24T18:30:16.814Z,1.00
2023-03-24T18:32:43.821Z,0.83
2023-03-24T18:35:16.362Z,0.93
2023-03-24T18:37:43.520Z,1.00
2023-03-24T18:40:10.947Z,0.93
2023-03-24T18:42:38.412Z,1.00
2023-03-24T18:45:06.737Z,1.00
2023-03-24T18:47:33.219Z,1.10
2023-03-24T18:49:59.842Z,0.80
2023-03-24T18:52:27.362Z,1.10
2023-03-24T18:54:54.205Z,1.07
2023-03-24T18:57:21.482Z,0.90
2023-03-24T18:59:48.056Z,1.10
2023-03-24T19:02:15.557Z,1.20
2023-03-24T19:04:43.316Z,0.80
2023-03-24T19:07:14.655Z,1.10
2023-03-24T19:09:42.497Z,1.23
2023-03-24T19:12:09.553Z,1.20
2023-03-24T19:14:36.652Z,1.10
2023-03-24T19:17:03.337Z,1.30
2023-03-24T19:19:31.755Z,1.23
2023-03-24T19:21:59.291Z,1.40
2023-03-24T19:24:26.236Z,1.27
2023-03-24T19:26:53.447Z,1.17
2023-03-24T19:29:21.202Z,1.23
2023-03-24T19:31:49.570Z,1.10
2023-03-24T19:34:16.220Z,1.00
2023-03-24T19:36:45.443Z,1.20
2023-03-24T19:39:17.429Z,1.40
2023-03-24T19:41:44.502Z,1.30
2023-03-24T19:44:11.263Z,1.10
2023-03-24T19:46:37.837Z,1.00
2023-03-24T19:49:04.525Z,0.90
2023-03-24T19:51:31.157Z,1.10
2023-03-24T19:53:57.637Z,1.23
2023-03-24T19:56:24.098Z,1.00
2023-03-24T19:58:51.674Z,1.00
2023-03-24T20:01:19.087Z,0.70
2023-03-24T20:03:45.687Z,1.17
2023-03-24T20:06:12.264Z,1.00
2023-03-24T20:08:39.194Z,0.87
2023-03-24T20:11:10.507Z,1.00
2023-03-24T20:13:36.972Z,1.00
2023-03-24T20:16:03.582Z,1.10
2023-03-24T20:18:30.205Z,1.03
2023-03-24T20:20:57.371Z,0.87
2023-03-24T20:23:23.797Z,1.00
2023-03-24T20:25:50.663Z,0.80
2023-03-24T20:28:18.723Z,0.90
2023-03-24T20:30:46.573Z,0.90
2023-03-24T20:33:13.514Z,0.80
2023-03-24T20:35:40.084Z,1.10
2023-03-24T20:38:06.597Z,0.90
2023-03-24T20:40:33.021Z,0.80
2023-03-24T20:42:59.910Z,1.10
2023-03-24T20:45:26.667Z,1.00
2023-03-24T20:47:53.332Z,0.90
2023-03-24T20:50:20.031Z,1.10
2023-03-24T20:52:47.370Z,0.80
2023-03-24T20:55:14.555Z,1.20
2023-03-24T20:57:41.462Z,1.03
2023-03-24T21:00:13.242Z,0.70
2023-03-24T21:02:41.600Z,0.90
2023-03-24T21:05:08.795Z,0.97
2023-03-24T21:07:37.984Z,1.10
2023-03-24T21:10:06.642Z,1.23
2023-03-24T21:12:34.514Z,1.00
2023-03-24T21:15:01.387Z,1.00
2023-03-24T21:17:32.596Z,0.97
2023-03-24T21:20:13.495Z,1.23
2023-03-24T21:22:56.170Z,0.77
2023-03-24T21:25:28.206Z,1.10
2023-03-24T21:27:55.350Z,1.10
2023-03-24T21:30:23.422Z,1.00
2023-03-24T21:32:51.713Z,0.60
2023-03-24T21:35:19.863Z,0.90
2023-03-24T21:37:47.158Z,1.20
2023-03-24T21:40:17.189Z,1.20
2023-03-24T21:42:46.058Z,1.00
2023-03-24T21:45:15.297Z,1.33
2023-03-24T21:47:42.950Z,1.20
2023-03-24T21:50:11.580Z,0.70
2023-03-24T21:52:41.543Z,1.27
2023-03-24T21:55:10.591Z,1.10
2023-03-24T21:57:36.968Z,1.10
2023-03-24T22:00:12.357Z,0.83
2023-03-24T22:02:39.631Z,1.33
2023-03-24T22:05:08.588Z,1.00
2023-03-24T22:07:37.417Z,1.27
2023-03-24T22:10:05.648Z,1.27
2023-03-24T22:12:32.634Z,1.10
2023-03-24T22:14:59.098Z,1.10
2023-03-24T22:17:26.178Z,1.17
2023-03-24T22:19:52.895Z,1.20
2023-03-24T22:22:19.356Z,1.00
2023-03-24T22:24:45.874Z,1.27
2023-03-24T22:27:12.337Z,0.80
2023-03-24T22:29:38.777Z,0.97
2023-03-24T22:32:05.844Z,1.10
2023-03-24T22:34:32.518Z,0.90
2023-03-24T22:36:58.878Z,0.97
2023-03-24T22:39:25.942Z,1.00
2023-03-24T22:41:52.467Z,1.10
2023-03-24T22:44:19.717Z,1.20
2023-03-24T22:46:46.232Z,0.93
2023-03-24T22:49:12.677Z,1.03
2023-03-24T22:51:39.051Z,1.00
2023-03-24T22:54:05.599Z,1.00
2023-03-24T22:56:32.068Z,1.07
2023-03-24T22:58:58.537Z,1.03
2023-03-24T23:01:24.968Z,1.07
2023-03-24T23:03:51.402Z,1.23
2023-03-24T23:06:19.532Z,1.30
2023-03-24T23:08:45.925Z,1.10
2023-03-24T23:11:12.415Z,0.90
2023-03-24T23:13:39.334Z,1.23
2023-03-24T23:16:06.672Z,6.00
2023-03-24T23:18:33.347Z,2.00
2023-03-24T23:21:09.742Z,1.20
2023-03-24T23:23:37.405Z,0.67
2023-03-24T23:26:05.477Z,0.90
2023-03-24T23:28:33.002Z,0.90
2023-03-24T23:30:59.369Z,0.90
2023-03-24T23:33:27.378Z,0.90
2023-03-24T23:35:58.322Z,0.70
2023-03-24T23:38:24.843Z,0.73
2023-03-24T23:40:51.197Z,0.83
2023-03-24T23:43:17.594Z,2.50
2023-03-24T23:45:45.688Z,2.13
2023-03-24T23:48:12.463Z,0.67
2023-03-24T23:50:38.871Z,0.40
2023-03-24T23:53:05.403Z,0.50
2023-03-24T23:55:31.840Z,0.83
2023-03-24T23:57:58.469Z,1.33
